createdAt,value
2018-06-17T00:01:01.586Z,62.09
2018-06-17T00:03:32.161Z,61.40
2018-06-17T00:06:03.058Z,61.75
2018-06-17T00:08:33.610Z,62.53
2018-06-17T00:11:04.392Z,62.14
2018-06-17T00:13:35.051Z,62.15
2018-06-17T00:16:05.841Z,62.93
2018-06-17T00:18:36.059Z,62.53
2018-06-17T00:21:06.305Z,63.16
2018-06-17T00:23:36.808Z,62.75
2018-06-17T00:26:10.158Z,62.46
2018-06-17T00:28:40.785Z,62.87
2018-06-17T00:31:11.476Z,62.17
2018-06-17T00:33:41.915Z,62.29
2018-06-17T00:36:12.722Z,62.05
2018-06-17T00:38:43.396Z,62.11
2018-06-17T00:41:14.112Z,63.96
2018-06-17T00:43:44.794Z,63.33
2018-06-17T00:46:15.796Z,65.92
2018-06-17T00:48:46.526Z,65.11
2018-06-17T00:51:17.316Z,63.73
2018-06-17T00:53:47.936Z,64.23
2018-06-17T00:56:19.752Z,63.79
2018-06-17T00:58:50.528Z,63.55
2018-06-17T01:01:21.652Z,63.47
2018-06-17T01:03:52.286Z,63.92
2018-06-17T01:06:23.405Z,63.79
2018-06-17T01:08:54.052Z,64.16
2018-06-17T01:11:24.827Z,64.22
2018-06-17T01:13:55.464Z,64.13
2018-06-17T01:16:26.227Z,63.57
2018-06-17T01:18:57.171Z,63.94
2018-06-17T01:21:28.048Z,63.86
2018-06-17T01:23:58.672Z,64.13
2018-06-17T01:26:29.370Z,64.44
2018-06-17T01:28:59.445Z,63.61
2018-06-17T01:31:30.190Z,65.31
2018-06-17T01:34:00.787Z,65.46
2018-06-17T01:36:31.578Z,64.50
2018-06-17T01:39:02.262Z,64.46
2018-06-17T01:41:32.946Z,64.13
2018-06-17T01:44:03.629Z,64.12
2018-06-17T01:46:34.281Z,65.14
2018-06-17T01:49:05.092Z,65.21
2018-06-17T01:51:35.853Z,64.72
2018-06-17T01:54:06.772Z,66.66
2018-06-17T01:56:37.552Z,65.61
2018-06-17T01:59:08.214Z,65.11
2018-06-17T02:01:38.792Z,64.62
2018-06-17T02:04:15.707Z,64.27
2018-06-17T02:06:51.592Z,64.85
2018-06-17T02:09:27.315Z,66.32
2018-06-17T02:12:04.215Z,65.74
2018-06-17T02:14:39.573Z,66.13
2018-06-17T02:17:10.202Z,65.25
2018-06-17T02:19:40.814Z,66.09
2018-06-17T02:22:11.461Z,65.58
2018-06-17T02:24:42.054Z,65.31
2018-06-17T02:27:12.810Z,65.53
2018-06-17T02:29:43.587Z,65.32
2018-06-17T02:32:14.437Z,64.52
2018-06-17T02:34:45.154Z,65.36
2018-06-17T02:37:15.450Z,66.07
2018-06-17T02:39:45.950Z,66.08
2018-06-17T02:42:16.942Z,65.29
2018-06-17T02:44:51.226Z,64.57
2018-06-17T02:47:26.958Z,64.33
2018-06-17T02:50:01.809Z,64.51
2018-06-17T02:52:37.553Z,64.56
2018-06-17T02:55:08.254Z,65.01
2018-06-17T02:57:39.329Z,65.02
2018-06-17T03:00:09.832Z,65.39
2018-06-17T03:02:40.556Z,64.46
2018-06-17T03:05:11.194Z,63.98
2018-06-17T03:07:41.873Z,64.27
2018-06-17T03:10:12.542Z,64.74
2018-06-17T03:12:43.262Z,65.22
2018-06-17T03:15:13.310Z,65.21
2018-06-17T03:17:44.074Z,64.53
2018-06-17T03:20:14.758Z,64.83
2018-06-17T03:22:45.536Z,65.14
2018-06-17T03:25:20.955Z,65.30
2018-06-17T03:27:56.746Z,65.37
2018-06-17T03:30:32.334Z,64.18
2018-06-17T03:33:08.294Z,63.85
2018-06-17T03:35:43.986Z,62.96
2018-06-17T03:38:14.931Z,62.82
2018-06-17T03:40:45.522Z,61.60
2018-06-17T03:43:16.495Z,62.00
2018-06-17T03:45:47.098Z,62.95
2018-06-17T03:48:17.843Z,62.56
2018-06-17T03:50:48.519Z,61.67
2018-06-17T03:53:19.629Z,62.03
2018-06-17T03:55:50.238Z,62.09
2018-06-17T03:58:21.129Z,62.83
2018-06-17T04:00:51.830Z,62.93
2018-06-17T04:03:22.526Z,63.77
2018-06-17T04:05:53.143Z,62.88
2018-06-17T04:08:23.930Z,61.43
2018-06-17T04:10:54.619Z,63.42
2018-06-17T04:13:25.712Z,62.78
2018-06-17T04:15:56.396Z,64.11
2018-06-17T04:18:27.305Z,64.31
2018-06-17T04:20:57.982Z,64.57
2018-06-17T04:23:28.786Z,62.90
2018-06-17T04:25:58.834Z,60.97
2018-06-17T04:28:29.649Z,61.56
2018-06-17T04:31:00.370Z,61.26
2018-06-17T04:33:30.635Z,60.05
2018-06-17T04:36:01.442Z,60.75
2018-06-17T04:38:32.230Z,60.20
2018-06-17T04:41:03.114Z,59.19
2018-06-17T04:43:34.099Z,59.34
2018-06-17T04:46:04.782Z,58.35
2018-06-17T04:48:35.371Z,58.55
2018-06-17T04:51:06.170Z,56.05
2018-06-17T04:53:36.938Z,56.24
2018-06-17T04:56:07.710Z,55.05
2018-06-17T04:58:38.509Z,54.54
2018-06-17T05:01:09.186Z,53.88
2018-06-17T05:03:39.954Z,53.69
2018-06-17T05:06:10.646Z,54.34
2018-06-17T05:08:41.437Z,54.81
2018-06-17T05:11:12.112Z,55.10
2018-06-17T05:13:43.021Z,54.61
2018-06-17T05:16:13.642Z,55.48
2018-06-17T05:18:44.499Z,54.13
2018-06-17T05:21:15.154Z,53.47
2018-06-17T05:23:45.930Z,53.86
2018-06-17T05:26:16.618Z,53.36
2018-06-17T05:28:46.818Z,53.56
2018-06-17T05:31:17.575Z,54.18
2018-06-17T05:33:48.620Z,52.02
2018-06-17T05:36:19.356Z,51.95
2018-06-17T05:38:50.149Z,50.34
2018-06-17T05:41:20.810Z,49.83
2018-06-17T05:43:51.045Z,49.73
2018-06-17T05:46:21.875Z,47.07
2018-06-17T05:48:52.927Z,47.05
2018-06-17T05:51:23.650Z,47.09
2018-06-17T05:53:54.645Z,46.53
2018-06-17T05:56:25.314Z,43.98
2018-06-17T05:58:56.412Z,45.93
2018-06-17T06:01:27.026Z,45.97
2018-06-17T06:03:57.915Z,45.57
2018-06-17T06:06:28.671Z,45.69
2018-06-17T06:08:59.587Z,45.43
2018-06-17T06:11:29.642Z,45.70
2018-06-17T06:14:00.504Z,44.02
2018-06-17T06:16:31.194Z,44.31
2018-06-17T06:19:02.116Z,41.56
2018-06-17T06:21:32.451Z,41.13
2018-06-17T06:24:03.554Z,40.63
2018-06-17T06:26:34.322Z,41.46
2018-06-17T06:29:05.412Z,43.55
2018-06-17T06:31:35.800Z,41.80
2018-06-17T06:34:07.613Z,42.22
2018-06-17T06:36:38.597Z,40.18
2018-06-17T06:39:11.416Z,40.74
2018-06-17T06:41:42.493Z,40.04
2018-06-17T06:44:13.437Z,40.02
2018-06-17T06:46:44.181Z,37.62
2018-06-17T06:49:15.090Z,39.57
2018-06-17T06:51:45.611Z,40.28
2018-06-17T06:54:16.350Z,38.03
2018-06-17T06:56:47.332Z,38.31
2018-06-17T06:59:18.306Z,37.34
2018-06-17T07:02:05.786Z,36.78
2018-06-17T07:04:54.436Z,37.56
2018-06-17T07:07:41.900Z,36.90
2018-06-17T07:10:27.642Z,37.20
2018-06-17T07:12:58.683Z,37.56
2018-06-17T07:15:46.536Z,38.64
2018-06-17T07:18:34.197Z,35.79
2018-06-17T07:21:05.801Z,36.85
2018-06-17T07:23:36.837Z,35.19
2018-06-17T07:26:35.541Z,35.04
2018-06-17T07:29:25.525Z,35.16
2018-06-17T07:31:56.741Z,36.96
2018-06-17T07:34:28.035Z,34.94
2018-06-17T07:36:59.365Z,33.22
2018-06-17T07:41:39.392Z,35.20
2018-06-17T07:44:10.536Z,35.94
2018-06-17T07:46:41.565Z,33.89
2018-06-17T07:49:34.676Z,34.31
2018-06-17T07:52:22.549Z,34.69
2018-06-17T07:54:53.396Z,33.33
2018-06-17T07:57:25.669Z,33.22
2018-06-17T07:59:56.780Z,30.98
2018-06-17T08:02:27.917Z,33.44
2018-06-17T08:04:58.991Z,30.78
2018-06-17T08:07:30.317Z,31.18
2018-06-17T08:10:01.037Z,31.95
2018-06-17T08:12:32.163Z,31.98
2018-06-17T08:15:03.265Z,30.87
2018-06-17T08:17:34.289Z,31.05
2018-06-17T08:20:04.902Z,31.59
2018-06-17T08:22:35.906Z,32.14
2018-06-17T08:25:06.608Z,29.62
2018-06-17T08:27:37.264Z,30.59
2018-06-17T08:30:08.000Z,29.51
2018-06-17T08:32:38.109Z,29.66
2018-06-17T08:35:08.605Z,30.02
2018-06-17T08:37:39.349Z,28.97
2018-06-17T08:40:10.168Z,27.25
2018-06-17T08:42:40.819Z,28.13
2018-06-17T08:45:11.633Z,28.72
2018-06-17T08:47:42.400Z,27.27
2018-06-17T08:50:13.307Z,28.34
2018-06-17T08:52:43.948Z,28.81
2018-06-17T08:55:14.948Z,28.43
2018-06-17T08:57:45.601Z,28.78
2018-06-17T09:00:16.508Z,29.39
2018-06-17T09:02:46.715Z,28.88
2018-06-17T09:05:17.148Z,27.45
2018-06-17T09:07:47.348Z,27.89
2018-06-17T09:10:18.027Z,28.80
2018-06-17T09:12:48.640Z,29.06
2018-06-17T09:15:19.501Z,28.88
2018-06-17T09:17:50.180Z,29.74
2018-06-17T09:20:20.904Z,27.88
2018-06-17T09:22:51.631Z,30.10
2018-06-17T09:25:22.397Z,29.30
2018-06-17T09:27:52.321Z,29.46
2018-06-17T09:30:23.090Z,27.65
2018-06-17T09:32:53.864Z,27.68
2018-06-17T09:35:24.628Z,29.26
2018-06-17T09:37:55.326Z,27.69
2018-06-17T09:40:26.277Z,26.73
2018-06-17T09:42:56.758Z,26.08
2018-06-17T09:45:27.546Z,27.01
2018-06-17T09:47:58.185Z,25.92
2018-06-17T09:50:28.869Z,27.77
2018-06-17T09:52:59.829Z,27.47
2018-06-17T09:55:30.873Z,26.95
2018-06-17T09:58:01.472Z,28.66
2018-06-17T10:00:31.814Z,29.60
2018-06-17T10:03:02.497Z,30.50
2018-06-17T10:05:33.286Z,31.36
2018-06-17T10:08:03.980Z,31.65
2018-06-17T10:11:04.427Z,30.93
2018-06-17T10:13:36.411Z,30.42
2018-06-17T10:16:07.241Z,29.30
2018-06-17T10:18:37.263Z,27.55
2018-06-17T10:21:08.422Z,30.28
2018-06-17T10:23:38.499Z,28.50
2018-06-17T10:26:10.513Z,28.54
2018-06-17T10:28:41.248Z,26.93
2018-06-17T10:31:12.139Z,25.20
2018-06-17T10:33:42.451Z,24.87
2018-06-17T10:36:13.297Z,25.54
2018-06-17T10:38:44.149Z,24.51
2018-06-17T10:41:15.239Z,26.44
2018-06-17T10:43:45.970Z,26.81
2018-06-17T10:46:16.537Z,28.77
2018-06-17T10:48:47.326Z,27.60
2018-06-17T10:51:18.082Z,27.35
2018-06-17T10:53:48.803Z,28.64
2018-06-17T10:56:19.695Z,27.77
2018-06-17T10:58:50.369Z,28.00
2018-06-17T11:01:21.146Z,26.27
2018-06-17T11:03:51.842Z,28.65
2018-06-17T11:06:22.687Z,25.39
2018-06-17T11:08:53.406Z,23.42
2018-06-17T11:11:24.458Z,24.79
2018-06-17T11:13:55.029Z,24.72
2018-06-17T11:16:25.842Z,27.29
2018-06-17T11:18:56.553Z,25.99
2018-06-17T11:21:27.342Z,27.62
2018-06-17T11:23:58.089Z,28.87
2018-06-17T11:26:28.932Z,28.83
2018-06-17T11:28:59.375Z,30.03
2018-06-17T11:31:30.157Z,31.41
2018-06-17T11:34:00.845Z,31.00
2018-06-17T11:36:31.714Z,40.17
2018-06-17T11:39:02.527Z,46.90
2018-06-17T11:41:33.261Z,41.00
2018-06-17T11:44:03.882Z,49.11
2018-06-17T11:46:34.715Z,53.93
2018-06-17T11:49:05.454Z,55.34
2018-06-17T11:51:36.314Z,55.10
2018-06-17T11:54:06.904Z,57.09
2018-06-17T11:56:37.525Z,52.82
2018-06-17T11:59:08.230Z,51.04
2018-06-17T12:01:39.310Z,54.56
2018-06-17T12:04:09.869Z,50.09
2018-06-17T12:06:40.703Z,50.80
2018-06-17T12:09:11.921Z,56.25
2018-06-17T12:11:42.433Z,49.76
2018-06-17T12:14:13.020Z,53.42
2018-06-17T12:16:43.813Z,59.25
2018-06-17T12:19:14.421Z,52.46
2018-06-17T12:21:45.385Z,56.57
2018-06-17T12:24:15.953Z,58.35
2018-06-17T12:26:46.810Z,55.21
2018-06-17T12:29:17.466Z,55.80
2018-06-17T12:31:48.273Z,55.83
2018-06-17T12:34:18.881Z,54.47
2018-06-17T12:36:49.637Z,55.59
2018-06-17T12:39:20.120Z,58.07
2018-06-17T12:41:50.776Z,57.87
2018-06-17T12:44:21.542Z,54.75
2018-06-17T12:46:52.258Z,57.06
2018-06-17T12:49:22.353Z,51.62
2018-06-17T12:51:53.434Z,50.49
2018-06-17T12:54:24.178Z,52.74
2018-06-17T12:57:00.038Z,50.48
2018-06-17T12:59:30.738Z,48.35
2018-06-17T13:02:00.984Z,49.24
2018-06-17T13:04:31.595Z,48.47
2018-06-17T13:07:02.413Z,46.30
2018-06-17T13:09:33.174Z,46.10
2018-06-17T13:12:04.026Z,47.42
2018-06-17T13:14:34.686Z,48.95
2018-06-17T13:17:05.629Z,49.58
2018-06-17T13:19:36.180Z,50.31
2018-06-17T13:22:07.289Z,49.88
2018-06-17T13:24:37.982Z,50.14
2018-06-17T13:27:08.348Z,44.71
2018-06-17T13:29:39.146Z,47.48
2018-06-17T13:32:09.957Z,45.98
2018-06-17T13:34:40.702Z,42.35
2018-06-17T13:37:11.492Z,42.84
2018-06-17T13:39:42.140Z,45.02
2018-06-17T13:42:12.934Z,45.72
2018-06-17T13:44:43.643Z,44.53
2018-06-17T13:47:14.250Z,47.68
2018-06-17T13:49:44.858Z,47.14
2018-06-17T13:52:15.692Z,44.07
2018-06-17T13:54:46.782Z,43.05
2018-06-17T13:57:17.497Z,45.87
2018-06-17T13:59:48.190Z,45.74
2018-06-17T14:02:18.819Z,41.30
2018-06-17T14:04:49.459Z,37.60
2018-06-17T14:07:20.153Z,39.55
2018-06-17T14:09:50.833Z,38.38
2018-06-17T14:12:21.824Z,40.81
2018-06-17T14:14:52.391Z,42.32
2018-06-17T14:17:23.621Z,39.50
2018-06-17T14:19:54.205Z,40.48
2018-06-17T14:22:24.953Z,40.69
2018-06-17T14:24:55.037Z,40.78
2018-06-17T14:27:25.934Z,41.07
2018-06-17T14:29:56.490Z,40.09
2018-06-17T14:32:27.307Z,42.31
2018-06-17T14:34:58.054Z,40.26
2018-06-17T14:37:28.902Z,40.11
2018-06-17T14:39:59.623Z,39.19
2018-06-17T14:42:35.434Z,42.50
2018-06-17T14:45:11.369Z,41.84
2018-06-17T14:47:46.829Z,40.85
2018-06-17T14:50:21.933Z,40.46
2018-06-17T14:52:57.745Z,41.10
2018-06-17T14:55:28.225Z,40.04
2018-06-17T14:57:58.385Z,40.99
2018-06-17T15:00:29.205Z,36.18
2018-06-17T15:02:59.850Z,40.91
2018-06-17T15:05:30.497Z,36.40
2018-06-17T15:08:01.139Z,37.84
2018-06-17T15:10:31.813Z,38.49
2018-06-17T15:13:02.501Z,38.48
2018-06-17T15:15:33.503Z,39.84
2018-06-17T15:18:04.289Z,38.38
2018-06-17T15:20:35.377Z,39.12
2018-06-17T15:23:06.013Z,39.40
2018-06-17T15:25:36.598Z,39.45
2018-06-17T15:28:06.689Z,39.87
2018-06-17T15:30:37.386Z,37.44
2018-06-17T15:33:12.909Z,37.89
2018-06-17T15:35:48.741Z,38.04
2018-06-17T15:38:31.257Z,38.72
2018-06-17T15:41:06.324Z,38.39
2018-06-17T15:43:37.132Z,38.55
2018-06-17T15:46:08.158Z,36.64
2018-06-17T15:48:38.857Z,36.65
2018-06-17T15:51:09.778Z,33.95
2018-06-17T15:53:40.638Z,37.43
2018-06-17T15:56:11.305Z,37.68
2018-06-17T15:58:42.056Z,37.30
2018-06-17T16:01:12.839Z,36.78
2018-06-17T16:03:43.378Z,39.06
2018-06-17T16:06:14.530Z,39.22
2018-06-17T16:08:45.245Z,37.03
2018-06-17T16:11:15.917Z,37.45
2018-06-17T16:13:50.809Z,37.04
2018-06-17T16:16:26.497Z,36.97
2018-06-17T16:19:02.390Z,37.56
2018-06-17T16:21:33.154Z,38.32
2018-06-17T16:24:03.845Z,37.67
2018-06-17T16:26:34.433Z,36.60
2018-06-17T16:29:05.130Z,37.86
2018-06-17T16:31:35.978Z,41.97
2018-06-17T16:34:06.605Z,42.46
2018-06-17T16:36:37.427Z,44.31
2018-06-17T16:39:12.030Z,42.84
2018-06-17T16:41:43.329Z,46.29
2018-06-17T16:44:14.149Z,48.57
2018-06-17T16:46:45.123Z,47.48
2018-06-17T16:49:15.325Z,46.85
2018-06-17T16:51:50.869Z,46.83
2018-06-17T16:54:26.469Z,45.88
2018-06-17T16:57:02.113Z,46.35
2018-06-17T16:59:37.777Z,46.60
2018-06-17T17:02:08.489Z,47.29
2018-06-17T17:04:39.142Z,47.71
2018-06-17T17:07:09.828Z,49.26
2018-06-17T17:09:39.916Z,49.04
2018-06-17T17:12:10.841Z,50.34
2018-06-17T17:14:41.721Z,49.57
2018-06-17T17:17:12.383Z,49.49
2018-06-17T17:19:43.051Z,49.95
2018-06-17T17:22:13.826Z,49.54
2018-06-17T17:24:44.518Z,49.84
2018-06-17T17:27:15.390Z,50.49
2018-06-17T17:29:46.086Z,49.24
2018-06-17T17:32:21.644Z,51.29
2018-06-17T17:35:58.070Z,52.41
2018-06-17T17:38:33.865Z,53.49
2018-06-17T17:41:05.440Z,54.62
2018-06-17T17:43:36.225Z,55.88
2018-06-17T17:46:12.057Z,55.81
2018-06-17T17:48:42.837Z,55.40
2018-06-17T17:51:13.149Z,56.22
2018-06-17T17:53:43.874Z,56.64
2018-06-17T17:56:14.805Z,56.67
2018-06-17T17:58:45.469Z,56.32
2018-06-17T18:01:16.204Z,56.85
2018-06-17T18:03:46.817Z,58.22
2018-06-17T18:06:17.554Z,57.33
2018-06-17T18:08:48.255Z,57.16
2018-06-17T18:11:19.036Z,58.09
2018-06-17T18:13:49.816Z,56.55
2018-06-17T18:16:20.626Z,57.56
2018-06-17T18:18:51.650Z,57.11
2018-06-17T18:21:22.284Z,57.99
2018-06-17T18:23:53.154Z,57.21
2018-06-17T18:26:28.256Z,57.34
2018-06-17T18:29:03.841Z,57.20
2018-06-17T18:31:39.277Z,55.20
2018-06-17T18:34:15.018Z,56.60
2018-06-17T18:36:45.835Z,55.71
2018-06-17T18:39:16.525Z,55.76
2018-06-17T18:41:47.199Z,56.42
2018-06-17T18:44:17.881Z,55.88
2018-06-17T18:46:47.909Z,55.85
2018-06-17T18:49:18.710Z,56.18
2018-06-17T18:51:49.692Z,55.74
2018-06-17T18:54:20.594Z,56.16
2018-06-17T18:56:51.502Z,55.77
2018-06-17T18:59:22.422Z,56.06
2018-06-17T19:01:52.862Z,56.45
2018-06-17T19:04:23.715Z,57.52
2018-06-17T19:06:54.412Z,58.25
2018-06-17T19:09:30.230Z,57.97
2018-06-17T19:12:05.693Z,57.32
2018-06-17T19:14:41.358Z,56.27
2018-06-17T19:17:16.904Z,56.67
2018-06-17T19:19:48.501Z,55.89
2018-06-17T19:22:19.258Z,56.41
2018-06-17T19:24:49.958Z,57.04
2018-06-17T19:27:20.650Z,56.88
2018-06-17T19:29:50.937Z,57.21
2018-06-17T19:32:21.573Z,58.08
2018-06-17T19:34:52.408Z,57.93
2018-06-17T19:37:23.149Z,60.60
2018-06-17T19:39:54.062Z,59.31
2018-06-17T19:42:24.719Z,59.83
2018-06-17T19:44:55.353Z,59.16
2018-06-17T19:47:26.075Z,58.77
2018-06-17T19:50:01.418Z,60.81
2018-06-17T19:52:36.442Z,60.24
2018-06-17T19:55:12.274Z,59.02
2018-06-17T19:57:47.837Z,58.71
2018-06-17T20:00:23.890Z,59.15
2018-06-17T20:02:54.165Z,59.27
2018-06-17T20:05:24.785Z,59.27
2018-06-17T20:07:55.354Z,59.48
2018-06-17T20:10:26.090Z,58.58
2018-06-17T20:12:56.713Z,58.20
2018-06-17T20:15:27.465Z,58.54
2018-06-17T20:17:58.207Z,57.37
2018-06-17T20:20:28.998Z,57.82
2018-06-17T20:22:59.089Z,57.23
2018-06-17T20:25:29.941Z,56.20
2018-06-17T20:28:00.161Z,56.78
2018-06-17T20:30:31.109Z,56.62
2018-06-17T20:33:06.105Z,57.85
2018-06-17T20:35:41.749Z,57.63
2018-06-17T20:38:18.034Z,58.38
2018-06-17T20:40:53.845Z,58.00
2018-06-17T20:43:29.345Z,58.43
2018-06-17T20:46:00.453Z,59.13
2018-06-17T20:48:31.190Z,57.83
2018-06-17T20:51:01.830Z,57.62
2018-06-17T20:53:32.210Z,57.14
2018-06-17T20:56:02.933Z,56.70
2018-06-17T20:58:33.650Z,56.81
2018-06-17T21:01:03.883Z,57.10
2018-06-17T21:03:34.122Z,55.98
2018-06-17T21:06:04.990Z,56.03
2018-06-17T21:08:35.671Z,56.55
2018-06-17T21:11:06.598Z,56.26
2018-06-17T21:13:36.854Z,56.66
2018-06-17T21:16:07.803Z,56.52
2018-06-17T21:18:43.497Z,57.39
2018-06-17T21:21:19.398Z,57.40
2018-06-17T21:23:54.778Z,56.84
2018-06-17T21:28:34.486Z,57.15
2018-06-17T21:31:05.142Z,58.51
2018-06-17T21:33:35.817Z,58.07
2018-06-17T21:36:06.626Z,57.84
2018-06-17T21:38:37.289Z,57.41
2018-06-17T21:41:08.201Z,57.48
2018-06-17T21:43:38.865Z,56.79
2018-06-17T21:46:09.114Z,57.02
2018-06-17T21:48:39.790Z,55.69
2018-06-17T21:51:10.378Z,55.90
2018-06-17T21:53:41.113Z,56.12
2018-06-17T21:56:12.031Z,56.18
2018-06-17T21:58:49.029Z,55.84
2018-06-17T22:01:20.490Z,56.66
2018-06-17T22:03:51.039Z,56.63
2018-06-17T22:06:21.730Z,56.81
2018-06-17T22:08:57.256Z,57.04
2018-06-17T22:11:32.369Z,58.09
2018-06-17T22:14:08.535Z,57.90
2018-06-17T22:16:44.289Z,57.32
2018-06-17T22:19:15.171Z,57.99
2018-06-17T22:21:45.909Z,57.58
2018-06-17T22:24:16.617Z,57.65
2018-06-17T22:26:47.333Z,56.88
2018-06-17T22:29:17.646Z,56.82
2018-06-17T22:31:48.341Z,57.23
2018-06-17T22:34:18.957Z,56.43
2018-06-17T22:36:49.469Z,56.49
2018-06-17T22:39:19.996Z,56.92
2018-06-17T22:41:50.634Z,58.74
2018-06-17T22:44:21.414Z,59.57
2018-06-17T22:46:52.035Z,60.78
2018-06-17T22:49:22.629Z,62.81
2018-06-17T22:51:53.345Z,61.62
2018-06-17T22:54:40.558Z,62.33
2018-06-17T22:57:16.201Z,62.52
2018-06-17T22:59:51.849Z,62.78
2018-06-17T23:02:27.516Z,62.35
2018-06-17T23:05:02.600Z,62.38
2018-06-17T23:07:38.026Z,61.96
2018-06-17T23:10:11.532Z,62.00
2018-06-17T23:12:42.150Z,63.75
2018-06-17T23:15:12.841Z,63.85
2018-06-17T23:17:42.773Z,64.43
2018-06-17T23:20:13.409Z,63.99
2018-06-17T23:22:44.177Z,62.90
2018-06-17T23:25:15.281Z,63.05
2018-06-17T23:27:45.469Z,63.54
2018-06-17T23:30:16.401Z,63.29
2018-06-17T23:32:46.874Z,64.50
2018-06-17T23:35:17.706Z,65.79
2018-06-17T23:37:47.917Z,64.60
2018-06-17T23:40:18.072Z,64.76
2018-06-17T23:42:48.733Z,65.31
2018-06-17T23:45:19.474Z,65.42
2018-06-17T23:47:55.006Z,64.98
2018-06-17T23:50:30.642Z,64.80
2018-06-17T23:53:05.997Z,64.01
2018-06-17T23:55:41.518Z,64.68
2018-06-17T23:58:12.334Z,64.06
